sensor_id;sensor_type;location;lat;lon;timestamp;P1;durP1;ratioP1;P2;durP2;ratioP2
69981;SDS011;57319;56.274;43.980;2022-11-06T00:00:16;3.80;;;1.63;;
69981;SDS011;57319;56.274;43.980;2022-11-06T00:02:42;1.75;;;1.60;;
69981;SDS011;57319;56.274;43.980;2022-11-06T00:05:09;1.35;;;1.35;;
69981;SDS011;57319;56.274;43.980;2022-11-06T00:10:19;2.22;;;1.38;;
69981;SDS011;57319;56.274;43.980;2022-11-06T00:12:45;4.35;;;1.30;;
69981;SDS011;57319;56.274;43.980;2022-11-06T00:15:11;0.95;;;0.95;;
69981;SDS011;57319;56.274;43.980;2022-11-06T00:17:37;1.85;;;1.50;;
69981;SDS011;57319;56.274;43.980;2022-11-06T00:20:03;1.48;;;1.10;;
69981;SDS011;57319;56.274;43.980;2022-11-06T00:22:36;1.92;;;1.13;;
69981;SDS011;57319;56.274;43.980;2022-11-06T00:25:03;1.50;;;1.40;;
69981;SDS011;57319;56.274;43.980;2022-11-06T00:27:29;1.50;;;1.20;;
69981;SDS011;57319;56.274;43.980;2022-11-06T00:29:55;0.90;;;0.90;;
69981;SDS011;57319;56.274;43.980;2022-11-06T00:32:21;1.30;;;1.20;;
69981;SDS011;57319;56.274;43.980;2022-11-06T00:34:46;1.05;;;1.00;;
69981;SDS011;57319;56.274;43.980;2022-11-06T00:37:12;0.93;;;0.93;;
69981;SDS011;57319;56.274;43.980;2022-11-06T00:39:38;1.33;;;1.30;;
69981;SDS011;57319;56.274;43.980;2022-11-06T00:42:04;2.63;;;1.30;;
69981;SDS011;57319;56.274;43.980;2022-11-06T00:44:29;1.42;;;1.30;;
69981;SDS011;57319;56.274;43.980;2022-11-06T00:46:55;1.33;;;1.27;;
69981;SDS011;57319;56.274;43.980;2022-11-06T00:49:20;1.48;;;1.38;;
69981;SDS011;57319;56.274;43.980;2022-11-06T00:51:46;1.30;;;1.30;;
69981;SDS011;57319;56.274;43.980;2022-11-06T00:54:12;2.45;;;1.23;;
69981;SDS011;57319;56.274;43.980;2022-11-06T00:56:38;1.10;;;1.10;;
69981;SDS011;57319;56.274;43.980;2022-11-06T00:59:05;1.67;;;1.40;;
69981;SDS011;57319;56.274;43.980;2022-11-06T01:01:34;1.50;;;1.40;;
69981;SDS011;57319;56.274;43.980;2022-11-06T01:04:02;1.40;;;1.40;;
69981;SDS011;57319;56.274;43.980;2022-11-06T01:06:39;2.90;;;1.48;;
69981;SDS011;57319;56.274;43.980;2022-11-06T01:09:07;6.90;;;1.23;;
69981;SDS011;57319;56.274;43.980;2022-11-06T01:11:34;0.93;;;0.93;;
69981;SDS011;57319;56.274;43.980;2022-11-06T01:14:02;1.00;;;1.00;;
69981;SDS011;57319;56.274;43.980;2022-11-06T01:16:30;5.82;;;0.98;;
69981;SDS011;57319;56.274;43.980;2022-11-06T01:18:56;1.45;;;1.02;;
69981;SDS011;57319;56.274;43.980;2022-11-06T01:21:27;1.55;;;1.15;;
69981;SDS011;57319;56.274;43.980;2022-11-06T01:23:57;1.15;;;1.15;;
69981;SDS011;57319;56.274;43.980;2022-11-06T01:26:27;1.08;;;1.08;;
69981;SDS011;57319;56.274;43.980;2022-11-06T01:28:54;2.17;;;1.30;;
69981;SDS011;57319;56.274;43.980;2022-11-06T01:31:21;1.50;;;1.40;;
69981;SDS011;57319;56.274;43.980;2022-11-06T01:33:49;2.78;;;1.58;;
69981;SDS011;57319;56.274;43.980;2022-11-06T01:36:15;1.45;;;1.45;;
69981;SDS011;57319;56.274;43.980;2022-11-06T01:38:44;1.30;;;1.30;;
69981;SDS011;57319;56.274;43.980;2022-11-06T01:41:14;1.35;;;1.23;;
69981;SDS011;57319;56.274;43.980;2022-11-06T01:46:16;1.48;;;1.48;;
69981;SDS011;57319;56.274;43.980;2022-11-06T01:48:43;1.58;;;1.38;;
69981;SDS011;57319;56.274;43.980;2022-11-06T01:51:17;1.20;;;1.10;;
69981;SDS011;57319;56.274;43.980;2022-11-06T01:53:43;1.25;;;1.23;;
69981;SDS011;57319;56.274;43.980;2022-11-06T01:56:10;1.48;;;1.48;;
69981;SDS011;57319;56.274;43.980;2022-11-06T01:58:38;1.88;;;1.77;;
69981;SDS011;57319;56.274;43.980;2022-11-06T02:01:07;2.80;;;1.70;;
69981;SDS011;57319;56.274;43.980;2022-11-06T02:03:37;1.35;;;1.35;;
69981;SDS011;57319;56.274;43.980;2022-11-06T02:06:04;4.22;;;1.50;;
69981;SDS011;57319;56.274;43.980;2022-11-06T02:08:32;1.80;;;1.70;;
69981;SDS011;57319;56.274;43.980;2022-11-06T02:10:57;2.53;;;1.70;;
69981;SDS011;57319;56.274;43.980;2022-11-06T02:22:06;1.80;;;1.70;;
69981;SDS011;57319;56.274;43.980;2022-11-06T02:28:00;2.45;;;1.60;;
69981;SDS011;57319;56.274;43.980;2022-11-06T02:30:33;1.48;;;1.48;;
69981;SDS011;57319;56.274;43.980;2022-11-06T02:33:04;1.83;;;1.77;;
69981;SDS011;57319;56.274;43.980;2022-11-06T02:38:03;1.70;;;1.70;;
69981;SDS011;57319;56.274;43.980;2022-11-06T02:40:38;1.90;;;1.80;;
69981;SDS011;57319;56.274;43.980;2022-11-06T02:43:09;1.70;;;1.65;;
69981;SDS011;57319;56.274;43.980;2022-11-06T02:45:38;1.55;;;1.48;;
69981;SDS011;57319;56.274;43.980;2022-11-06T02:48:09;2.60;;;1.60;;
69981;SDS011;57319;56.274;43.980;2022-11-06T02:50:42;1.50;;;1.50;;
69981;SDS011;57319;56.274;43.980;2022-11-06T02:53:12;1.40;;;1.40;;
69981;SDS011;57319;56.274;43.980;2022-11-06T02:55:42;1.35;;;1.25;;
69981;SDS011;57319;56.274;43.980;2022-11-06T03:01:04;3.25;;;1.67;;
69981;SDS011;57319;56.274;43.980;2022-11-06T03:03:35;3.95;;;1.77;;
69981;SDS011;57319;56.274;43.980;2022-11-06T03:06:10;1.52;;;1.52;;
69981;SDS011;57319;56.274;43.980;2022-11-06T03:08:49;2.00;;;1.90;;
69981;SDS011;57319;56.274;43.980;2022-11-06T03:11:22;1.80;;;1.50;;
69981;SDS011;57319;56.274;43.980;2022-11-06T03:19:03;1.98;;;1.88;;
69981;SDS011;57319;56.274;43.980;2022-11-06T03:21:56;2.00;;;1.95;;
69981;SDS011;57319;56.274;43.980;2022-11-06T03:24:34;1.98;;;1.98;;
69981;SDS011;57319;56.274;43.980;2022-11-06T03:27:16;1.80;;;1.70;;
69981;SDS011;57319;56.274;43.980;2022-11-06T03:29:49;1.88;;;1.77;;
69981;SDS011;57319;56.274;43.980;2022-11-06T03:37:58;2.10;;;2.10;;
69981;SDS011;57319;56.274;43.980;2022-11-06T03:40:46;11.07;;;2.67;;
69981;SDS011;57319;56.274;43.980;2022-11-06T03:43:17;2.10;;;2.00;;
69981;SDS011;57319;56.274;43.980;2022-11-06T03:45:46;2.20;;;2.10;;
69981;SDS011;57319;56.274;43.980;2022-11-06T03:48:48;1.98;;;1.90;;
69981;SDS011;57319;56.274;43.980;2022-11-06T03:53:51;5.63;;;2.80;;
69981;SDS011;57319;56.274;43.980;2022-11-06T03:58:48;3.08;;;2.88;;
69981;SDS011;57319;56.274;43.980;2022-11-06T04:01:17;4.63;;;2.92;;
69981;SDS011;57319;56.274;43.980;2022-11-06T04:03:55;3.53;;;2.80;;
69981;SDS011;57319;56.274;43.980;2022-11-06T04:06:34;3.40;;;2.83;;
69981;SDS011;57319;56.274;43.980;2022-11-06T04:09:06;6.63;;;2.65;;
69981;SDS011;57319;56.274;43.980;2022-11-06T04:11:54;4.32;;;3.00;;
69981;SDS011;57319;56.274;43.980;2022-11-06T04:14:41;5.85;;;2.53;;
69981;SDS011;57319;56.274;43.980;2022-11-06T04:17:11;4.45;;;2.88;;
69981;SDS011;57319;56.274;43.980;2022-11-06T04:19:39;2.92;;;2.72;;
69981;SDS011;57319;56.274;43.980;2022-11-06T04:30:27;4.05;;;3.10;;
69981;SDS011;57319;56.274;43.980;2022-11-06T04:36:01;6.53;;;2.22;;
69981;SDS011;57319;56.274;43.980;2022-11-06T04:41:57;3.25;;;2.85;;
69981;SDS011;57319;56.274;43.980;2022-11-06T04:44:08;3.63;;;3.33;;
69981;SDS011;57319;56.274;43.980;2022-11-06T04:46:44;2.92;;;2.83;;
69981;SDS011;57319;56.274;43.980;2022-11-06T04:49:13;4.97;;;3.03;;
69981;SDS011;57319;56.274;43.980;2022-11-06T04:51:40;5.47;;;2.75;;
69981;SDS011;57319;56.274;43.980;2022-11-06T04:54:08;3.50;;;3.30;;
69981;SDS011;57319;56.274;43.980;2022-11-06T04:56:35;3.92;;;3.53;;
69981;SDS011;57319;56.274;43.980;2022-11-06T04:59:02;15.35;;;3.28;;
69981;SDS011;57319;56.274;43.980;2022-11-06T05:01:28;9.38;;;3.20;;
69981;SDS011;57319;56.274;43.980;2022-11-06T05:03:54;19.98;;;3.45;;
69981;SDS011;57319;56.274;43.980;2022-11-06T05:06:20;4.72;;;3.35;;
69981;SDS011;57319;56.274;43.980;2022-11-06T05:08:46;5.45;;;2.50;;
69981;SDS011;57319;56.274;43.980;2022-11-06T05:11:12;4.82;;;2.40;;
69981;SDS011;57319;56.274;43.980;2022-11-06T05:13:38;2.90;;;2.40;;
69981;SDS011;57319;56.274;43.980;2022-11-06T05:16:03;6.07;;;2.97;;
69981;SDS011;57319;56.274;43.980;2022-11-06T05:18:29;7.63;;;3.08;;
69981;SDS011;57319;56.274;43.980;2022-11-06T05:21:01;3.72;;;3.42;;
69981;SDS011;57319;56.274;43.980;2022-11-06T05:23:46;5.78;;;2.85;;
69981;SDS011;57319;56.274;43.980;2022-11-06T05:26:12;6.65;;;2.92;;
69981;SDS011;57319;56.274;43.980;2022-11-06T05:28:38;7.30;;;2.72;;
69981;SDS011;57319;56.274;43.980;2022-11-06T05:31:04;3.33;;;2.70;;
69981;SDS011;57319;56.274;43.980;2022-11-06T05:33:32;5.63;;;2.75;;
69981;SDS011;57319;56.274;43.980;2022-11-06T05:36:02;10.48;;;2.63;;
69981;SDS011;57319;56.274;43.980;2022-11-06T05:38:30;8.15;;;2.92;;
69981;SDS011;57319;56.274;43.980;2022-11-06T05:40:56;6.55;;;2.90;;
69981;SDS011;57319;56.274;43.980;2022-11-06T05:43:24;2.50;;;2.30;;
69981;SDS011;57319;56.274;43.980;2022-11-06T05:45:50;3.47;;;2.90;;
69981;SDS011;57319;56.274;43.980;2022-11-06T05:48:16;2.60;;;1.95;;
69981;SDS011;57319;56.274;43.980;2022-11-06T05:50:41;2.70;;;2.53;;
69981;SDS011;57319;56.274;43.980;2022-11-06T05:53:07;11.80;;;2.83;;
69981;SDS011;57319;56.274;43.980;2022-11-06T05:55:32;2.28;;;2.10;;
69981;SDS011;57319;56.274;43.980;2022-11-06T05:57:58;12.63;;;2.40;;
69981;SDS011;57319;56.274;43.980;2022-11-06T06:00:24;2.60;;;2.40;;
69981;SDS011;57319;56.274;43.980;2022-11-06T06:02:50;6.43;;;2.15;;
69981;SDS011;57319;56.274;43.980;2022-11-06T06:05:15;3.13;;;2.03;;
69981;SDS011;57319;56.274;43.980;2022-11-06T06:07:41;3.90;;;1.90;;
69981;SDS011;57319;56.274;43.980;2022-11-06T06:10:07;1.90;;;1.90;;
69981;SDS011;57319;56.274;43.980;2022-11-06T06:12:33;10.77;;;2.25;;
69981;SDS011;57319;56.274;43.980;2022-11-06T06:14:58;6.72;;;2.50;;
69981;SDS011;57319;56.274;43.980;2022-11-06T06:17:24;2.55;;;2.45;;
69981;SDS011;57319;56.274;43.980;2022-11-06T06:19:50;7.72;;;2.10;;
69981;SDS011;57319;56.274;43.980;2022-11-06T06:22:16;3.58;;;2.10;;
69981;SDS011;57319;56.274;43.980;2022-11-06T06:24:42;7.53;;;2.67;;
69981;SDS011;57319;56.274;43.980;2022-11-06T06:27:07;4.70;;;3.33;;
69981;SDS011;57319;56.274;43.980;2022-11-06T06:29:33;9.05;;;2.70;;
69981;SDS011;57319;56.274;43.980;2022-11-06T06:31:59;10.13;;;2.38;;
69981;SDS011;57319;56.274;43.980;2022-11-06T06:34:24;9.65;;;2.60;;
69981;SDS011;57319;56.274;43.980;2022-11-06T06:36:50;10.68;;;2.67;;
69981;SDS011;57319;56.274;43.980;2022-11-06T06:39:17;7.38;;;2.45;;
69981;SDS011;57319;56.274;43.980;2022-11-06T06:41:44;2.40;;;2.03;;
69981;SDS011;57319;56.274;43.980;2022-11-06T06:44:10;4.63;;;2.80;;
69981;SDS011;57319;56.274;43.980;2022-11-06T06:46:36;17.23;;;3.55;;
69981;SDS011;57319;56.274;43.980;2022-11-06T06:49:02;9.55;;;2.78;;
69981;SDS011;57319;56.274;43.980;2022-11-06T06:51:28;16.77;;;3.38;;
69981;SDS011;57319;56.274;43.980;2022-11-06T06:53:53;4.15;;;3.78;;
69981;SDS011;57319;56.274;43.980;2022-11-06T06:56:19;6.15;;;3.60;;
69981;SDS011;57319;56.274;43.980;2022-11-06T06:58:45;8.23;;;4.10;;
69981;SDS011;57319;56.274;43.980;2022-11-06T07:01:10;4.88;;;4.15;;
69981;SDS011;57319;56.274;43.980;2022-11-06T07:03:36;8.75;;;4.00;;
69981;SDS011;57319;56.274;43.980;2022-11-06T07:06:02;4.97;;;4.57;;
69981;SDS011;57319;56.274;43.980;2022-11-06T07:08:29;9.85;;;4.15;;
69981;SDS011;57319;56.274;43.980;2022-11-06T07:11:01;10.05;;;4.70;;
69981;SDS011;57319;56.274;43.980;2022-11-06T07:13:29;12.95;;;5.18;;
69981;SDS011;57319;56.274;43.980;2022-11-06T07:15:55;15.40;;;5.32;;
69981;SDS011;57319;56.274;43.980;2022-11-06T07:18:21;5.85;;;4.50;;
69981;SDS011;57319;56.274;43.980;2022-11-06T07:20:46;16.17;;;4.55;;
69981;SDS011;57319;56.274;43.980;2022-11-06T07:23:12;11.52;;;4.50;;
69981;SDS011;57319;56.274;43.980;2022-11-06T07:25:38;5.53;;;4.05;;
69981;SDS011;57319;56.274;43.980;2022-11-06T07:28:04;12.77;;;4.55;;
69981;SDS011;57319;56.274;43.980;2022-11-06T07:30:31;13.10;;;4.38;;
69981;SDS011;57319;56.274;43.980;2022-11-06T07:33:01;5.13;;;4.63;;
69981;SDS011;57319;56.274;43.980;2022-11-06T07:35:28;4.82;;;4.40;;
69981;SDS011;57319;56.274;43.980;2022-11-06T07:37:54;9.00;;;4.97;;
69981;SDS011;57319;56.274;43.980;2022-11-06T07:40:20;16.92;;;6.32;;
69981;SDS011;57319;56.274;43.980;2022-11-06T07:42:45;10.95;;;5.57;;
69981;SDS011;57319;56.274;43.980;2022-11-06T07:45:11;13.57;;;5.40;;
69981;SDS011;57319;56.274;43.980;2022-11-06T07:47:37;12.27;;;5.40;;
69981;SDS011;57319;56.274;43.980;2022-11-06T07:50:02;13.43;;;5.72;;
69981;SDS011;57319;56.274;43.980;2022-11-06T07:52:29;19.00;;;7.75;;
69981;SDS011;57319;56.274;43.980;2022-11-06T07:54:55;20.48;;;6.65;;
69981;SDS011;57319;56.274;43.980;2022-11-06T07:57:22;20.58;;;6.75;;
69981;SDS011;57319;56.274;43.980;2022-11-06T07:59:49;20.45;;;7.15;;
69981;SDS011;57319;56.274;43.980;2022-11-06T08:02:15;14.30;;;7.18;;
69981;SDS011;57319;56.274;43.980;2022-11-06T08:04:41;16.70;;;7.63;;
69981;SDS011;57319;56.274;43.980;2022-11-06T08:07:07;12.75;;;8.25;;
69981;SDS011;57319;56.274;43.980;2022-11-06T08:09:33;14.90;;;7.72;;
69981;SDS011;57319;56.274;43.980;2022-11-06T08:11:58;11.18;;;7.43;;
69981;SDS011;57319;56.274;43.980;2022-11-06T08:14:24;8.30;;;6.85;;
69981;SDS011;57319;56.274;43.980;2022-11-06T08:16:49;9.15;;;6.88;;
69981;SDS011;57319;56.274;43.980;2022-11-06T08:19:15;23.67;;;7.90;;
69981;SDS011;57319;56.274;43.980;2022-11-06T08:21:41;12.40;;;6.07;;
69981;SDS011;57319;56.274;43.980;2022-11-06T08:24:06;16.65;;;6.88;;
69981;SDS011;57319;56.274;43.980;2022-11-06T08:26:32;8.43;;;6.28;;
69981;SDS011;57319;56.274;43.980;2022-11-06T08:28:58;21.38;;;7.00;;
69981;SDS011;57319;56.274;43.980;2022-11-06T08:31:24;12.52;;;7.05;;
69981;SDS011;57319;56.274;43.980;2022-11-06T08:33:50;10.95;;;6.60;;
69981;SDS011;57319;56.274;43.980;2022-11-06T08:36:15;22.80;;;6.75;;
69981;SDS011;57319;56.274;43.980;2022-11-06T08:38:41;9.40;;;6.65;;
69981;SDS011;57319;56.274;43.980;2022-11-06T08:41:09;8.65;;;7.40;;
69981;SDS011;57319;56.274;43.980;2022-11-06T08:43:36;11.13;;;7.45;;
69981;SDS011;57319;56.274;43.980;2022-11-06T08:46:03;8.55;;;6.45;;
69981;SDS011;57319;56.274;43.980;2022-11-06T08:48:30;11.15;;;7.25;;
69981;SDS011;57319;56.274;43.980;2022-11-06T08:50:56;11.30;;;6.15;;
69981;SDS011;57319;56.274;43.980;2022-11-06T08:53:21;14.60;;;6.75;;
69981;SDS011;57319;56.274;43.980;2022-11-06T08:55:47;11.73;;;6.68;;
69981;SDS011;57319;56.274;43.980;2022-11-06T08:58:13;8.95;;;6.30;;
69981;SDS011;57319;56.274;43.980;2022-11-06T09:00:38;16.98;;;6.90;;
69981;SDS011;57319;56.274;43.980;2022-11-06T09:03:06;23.92;;;6.78;;
69981;SDS011;57319;56.274;43.980;2022-11-06T09:05:34;28.55;;;8.15;;
69981;SDS011;57319;56.274;43.980;2022-11-06T09:07:59;13.23;;;6.22;;
69981;SDS011;57319;56.274;43.980;2022-11-06T09:10:25;12.43;;;8.15;;
69981;SDS011;57319;56.274;43.980;2022-11-06T09:12:51;14.30;;;7.80;;
69981;SDS011;57319;56.274;43.980;2022-11-06T09:15:17;16.75;;;7.13;;
69981;SDS011;57319;56.274;43.980;2022-11-06T09:17:44;18.35;;;7.32;;
69981;SDS011;57319;56.274;43.980;2022-11-06T09:20:11;11.43;;;8.45;;
69981;SDS011;57319;56.274;43.980;2022-11-06T09:22:38;12.70;;;8.52;;
69981;SDS011;57319;56.274;43.980;2022-11-06T09:25:03;16.98;;;7.15;;
69981;SDS011;57319;56.274;43.980;2022-11-06T09:27:30;7.75;;;6.95;;
69981;SDS011;57319;56.274;43.980;2022-11-06T09:29:56;13.02;;;6.90;;
69981;SDS011;57319;56.274;43.980;2022-11-06T09:32:22;11.95;;;6.32;;
69981;SDS011;57319;56.274;43.980;2022-11-06T09:34:48;19.85;;;7.07;;
69981;SDS011;57319;56.274;43.980;2022-11-06T09:37:14;7.43;;;6.75;;
69981;SDS011;57319;56.274;43.980;2022-11-06T09:39:40;10.77;;;7.72;;
69981;SDS011;57319;56.274;43.980;2022-11-06T09:42:20;16.55;;;6.78;;
69981;SDS011;57319;56.274;43.980;2022-11-06T09:45:02;13.63;;;6.60;;
69981;SDS011;57319;56.274;43.980;2022-11-06T09:47:56;16.40;;;7.35;;
69981;SDS011;57319;56.274;43.980;2022-11-06T09:50:37;10.85;;;6.97;;
69981;SDS011;57319;56.274;43.980;2022-11-06T09:53:29;11.15;;;8.45;;
69981;SDS011;57319;56.274;43.980;2022-11-06T09:56:04;20.02;;;7.72;;
69981;SDS011;57319;56.274;43.980;2022-11-06T09:58:37;8.60;;;7.70;;
69981;SDS011;57319;56.274;43.980;2022-11-06T10:01:13;21.70;;;7.65;;
69981;SDS011;57319;56.274;43.980;2022-11-06T10:06:12;15.10;;;8.13;;
69981;SDS011;57319;56.274;43.980;2022-11-06T10:08:37;14.82;;;7.10;;
69981;SDS011;57319;56.274;43.980;2022-11-06T10:16:40;28.65;;;8.63;;
69981;SDS011;57319;56.274;43.980;2022-11-06T10:24:22;18.85;;;7.78;;
69981;SDS011;57319;56.274;43.980;2022-11-06T10:26:57;18.67;;;9.50;;
69981;SDS011;57319;56.274;43.980;2022-11-06T10:34:48;12.77;;;8.52;;
69981;SDS011;57319;56.274;43.980;2022-11-06T10:37:20;12.95;;;7.38;;
69981;SDS011;57319;56.274;43.980;2022-11-06T10:39:50;11.90;;;7.90;;
69981;SDS011;57319;56.274;43.980;2022-11-06T10:42:19;14.52;;;6.97;;
69981;SDS011;57319;56.274;43.980;2022-11-06T10:44:50;15.23;;;7.72;;
69981;SDS011;57319;56.274;43.980;2022-11-06T10:47:22;9.73;;;6.30;;
69981;SDS011;57319;56.274;43.980;2022-11-06T10:49:55;14.52;;;7.35;;
69981;SDS011;57319;56.274;43.980;2022-11-06T10:55:28;13.20;;;7.85;;
69981;SDS011;57319;56.274;43.980;2022-11-06T10:58:05;9.07;;;7.50;;
69981;SDS011;57319;56.274;43.980;2022-11-06T11:00:35;10.02;;;6.93;;
69981;SDS011;57319;56.274;43.980;2022-11-06T11:03:03;13.73;;;7.53;;
69981;SDS011;57319;56.274;43.980;2022-11-06T11:05:36;18.17;;;7.68;;
69981;SDS011;57319;56.274;43.980;2022-11-06T11:08:03;18.30;;;7.70;;
69981;SDS011;57319;56.274;43.980;2022-11-06T11:10:30;21.10;;;6.72;;
69981;SDS011;57319;56.274;43.980;2022-11-06T11:12:56;19.08;;;7.10;;
69981;SDS011;57319;56.274;43.980;2022-11-06T11:15:26;13.55;;;7.72;;
69981;SDS011;57319;56.274;43.980;2022-11-06T11:18:08;12.60;;;7.82;;
69981;SDS011;57319;56.274;43.980;2022-11-06T11:20:44;13.30;;;8.07;;
69981;SDS011;57319;56.274;43.980;2022-11-06T11:25:49;12.95;;;7.45;;
69981;SDS011;57319;56.274;43.980;2022-11-06T11:30:52;22.35;;;8.45;;
69981;SDS011;57319;56.274;43.980;2022-11-06T11:33:23;17.23;;;8.18;;
69981;SDS011;57319;56.274;43.980;2022-11-06T11:35:50;10.98;;;7.05;;
69981;SDS011;57319;56.274;43.980;2022-11-06T11:38:17;21.25;;;8.18;;
69981;SDS011;57319;56.274;43.980;2022-11-06T11:40:45;13.63;;;7.53;;
69981;SDS011;57319;56.274;43.980;2022-11-06T11:46:04;15.88;;;7.18;;
69981;SDS011;57319;56.274;43.980;2022-11-06T11:48:51;8.38;;;6.25;;
69981;SDS011;57319;56.274;43.980;2022-11-06T11:51:34;15.68;;;6.53;;
69981;SDS011;57319;56.274;43.980;2022-11-06T11:59:20;11.70;;;7.57;;
69981;SDS011;57319;56.274;43.980;2022-11-06T12:01:52;18.13;;;6.95;;
69981;SDS011;57319;56.274;43.980;2022-11-06T12:04:25;9.98;;;7.43;;
69981;SDS011;57319;56.274;43.980;2022-11-06T12:06:56;14.60;;;7.43;;
69981;SDS011;57319;56.274;43.980;2022-11-06T12:09:26;11.60;;;6.72;;
69981;SDS011;57319;56.274;43.980;2022-11-06T12:11:54;8.27;;;6.30;;
69981;SDS011;57319;56.274;43.980;2022-11-06T12:17:14;17.73;;;6.80;;
69981;SDS011;57319;56.274;43.980;2022-11-06T12:19:46;12.50;;;6.10;;
69981;SDS011;57319;56.274;43.980;2022-11-06T12:22:26;20.30;;;6.00;;
69981;SDS011;57319;56.274;43.980;2022-11-06T12:24:58;8.45;;;5.10;;
69981;SDS011;57319;56.274;43.980;2022-11-06T12:27:34;9.00;;;5.10;;
69981;SDS011;57319;56.274;43.980;2022-11-06T12:30:14;5.97;;;4.93;;
69981;SDS011;57319;56.274;43.980;2022-11-06T12:32:56;15.15;;;4.97;;
69981;SDS011;57319;56.274;43.980;2022-11-06T12:35:33;9.88;;;5.20;;
69981;SDS011;57319;56.274;43.980;2022-11-06T12:41:04;13.80;;;5.28;;
69981;SDS011;57319;56.274;43.980;2022-11-06T12:54:51;14.10;;;5.78;;
69981;SDS011;57319;56.274;43.980;2022-11-06T13:08:34;12.60;;;6.28;;
69981;SDS011;57319;56.274;43.980;2022-11-06T13:22:08;15.23;;;6.57;;
69981;SDS011;57319;56.274;43.980;2022-11-06T13:24:38;24.83;;;7.45;;
69981;SDS011;57319;56.274;43.980;2022-11-06T13:29:47;16.20;;;6.25;;
69981;SDS011;57319;56.274;43.980;2022-11-06T13:32:14;13.93;;;6.72;;
69981;SDS011;57319;56.274;43.980;2022-11-06T13:34:43;9.93;;;5.97;;
69981;SDS011;57319;56.274;43.980;2022-11-06T13:37:16;14.77;;;5.85;;
69981;SDS011;57319;56.274;43.980;2022-11-06T13:39:45;6.95;;;4.85;;
69981;SDS011;57319;56.274;43.980;2022-11-06T13:42:20;10.48;;;5.30;;
69981;SDS011;57319;56.274;43.980;2022-11-06T13:44:50;13.07;;;5.60;;
69981;SDS011;57319;56.274;43.980;2022-11-06T13:47:18;18.50;;;6.35;;
69981;SDS011;57319;56.274;43.980;2022-11-06T13:53:02;7.65;;;5.70;;
69981;SDS011;57319;56.274;43.980;2022-11-06T14:06:41;12.98;;;4.40;;
69981;SDS011;57319;56.274;43.980;2022-11-06T14:09:10;8.85;;;5.45;;
69981;SDS011;57319;56.274;43.980;2022-11-06T14:11:43;15.00;;;6.43;;
69981;SDS011;57319;56.274;43.980;2022-11-06T14:16:44;13.80;;;6.13;;
69981;SDS011;57319;56.274;43.980;2022-11-06T14:19:30;25.83;;;5.25;;
69981;SDS011;57319;56.274;43.980;2022-11-06T14:24:34;6.50;;;5.20;;
69981;SDS011;57319;56.274;43.980;2022-11-06T14:27:05;7.70;;;5.75;;
69981;SDS011;57319;56.274;43.980;2022-11-06T14:34:40;14.10;;;5.78;;
69981;SDS011;57319;56.274;43.980;2022-11-06T14:42:34;7.97;;;5.78;;
69981;SDS011;57319;56.274;43.980;2022-11-06T14:45:15;7.32;;;5.85;;
69981;SDS011;57319;56.274;43.980;2022-11-06T14:52:51;15.50;;;6.00;;
69981;SDS011;57319;56.274;43.980;2022-11-06T14:57:54;13.95;;;6.75;;
69981;SDS011;57319;56.274;43.980;2022-11-06T15:00:35;18.48;;;6.13;;
69981;SDS011;57319;56.274;43.980;2022-11-06T15:03:02;7.70;;;5.95;;
69981;SDS011;57319;56.274;43.980;2022-11-06T15:05:30;17.10;;;6.85;;
69981;SDS011;57319;56.274;43.980;2022-11-06T15:08:01;8.75;;;6.43;;
69981;SDS011;57319;56.274;43.980;2022-11-06T15:15:43;19.58;;;6.15;;
69981;SDS011;57319;56.274;43.980;2022-11-06T15:18:11;13.90;;;6.28;;
69981;SDS011;57319;56.274;43.980;2022-11-06T15:20:43;16.20;;;6.15;;
69981;SDS011;57319;56.274;43.980;2022-11-06T15:23:16;7.80;;;6.22;;
69981;SDS011;57319;56.274;43.980;2022-11-06T15:25:49;12.45;;;5.50;;
69981;SDS011;57319;56.274;43.980;2022-11-06T15:28:21;17.43;;;6.40;;
69981;SDS011;57319;56.274;43.980;2022-11-06T15:30:51;17.95;;;6.25;;
69981;SDS011;57319;56.274;43.980;2022-11-06T15:33:28;12.45;;;6.57;;
69981;SDS011;57319;56.274;43.980;2022-11-06T15:36:00;15.50;;;6.32;;
69981;SDS011;57319;56.274;43.980;2022-11-06T15:38:35;17.75;;;6.63;;
69981;SDS011;57319;56.274;43.980;2022-11-06T15:41:03;8.43;;;7.05;;
69981;SDS011;57319;56.274;43.980;2022-11-06T15:43:32;18.55;;;7.43;;
69981;SDS011;57319;56.274;43.980;2022-11-06T15:46:16;9.10;;;7.90;;
69981;SDS011;57319;56.274;43.980;2022-11-06T15:48:42;9.60;;;6.40;;
69981;SDS011;57319;56.274;43.980;2022-11-06T15:51:30;8.48;;;6.30;;
69981;SDS011;57319;56.274;43.980;2022-11-06T15:53:54;11.75;;;6.20;;
69981;SDS011;57319;56.274;43.980;2022-11-06T15:56:21;16.48;;;7.07;;
69981;SDS011;57319;56.274;43.980;2022-11-06T16:01:37;17.80;;;6.68;;
69981;SDS011;57319;56.274;43.980;2022-11-06T16:04:04;13.77;;;6.47;;
69981;SDS011;57319;56.274;43.980;2022-11-06T16:06:35;18.00;;;6.45;;
69981;SDS011;57319;56.274;43.980;2022-11-06T16:09:02;10.57;;;6.70;;
69981;SDS011;57319;56.274;43.980;2022-11-06T16:11:28;15.93;;;7.25;;
69981;SDS011;57319;56.274;43.980;2022-11-06T16:13:54;19.25;;;7.55;;
69981;SDS011;57319;56.274;43.980;2022-11-06T16:18:57;13.93;;;7.82;;
69981;SDS011;57319;56.274;43.980;2022-11-06T16:21:25;25.13;;;8.10;;
69981;SDS011;57319;56.274;43.980;2022-11-06T16:24:08;20.23;;;8.68;;
69981;SDS011;57319;56.274;43.980;2022-11-06T16:26:37;27.08;;;8.75;;
69981;SDS011;57319;56.274;43.980;2022-11-06T16:29:14;19.70;;;9.23;;
69981;SDS011;57319;56.274;43.980;2022-11-06T16:31:41;26.40;;;8.40;;
69981;SDS011;57319;56.274;43.980;2022-11-06T16:36:59;11.10;;;6.80;;
69981;SDS011;57319;56.274;43.980;2022-11-06T16:52:02;11.25;;;6.88;;
69981;SDS011;57319;56.274;43.980;2022-11-06T16:54:49;13.75;;;7.13;;
69981;SDS011;57319;56.274;43.980;2022-11-06T16:57:18;12.43;;;7.13;;
69981;SDS011;57319;56.274;43.980;2022-11-06T16:59:57;12.40;;;7.30;;
69981;SDS011;57319;56.274;43.980;2022-11-06T17:02:27;12.43;;;6.28;;
69981;SDS011;57319;56.274;43.980;2022-11-06T17:05:08;12.98;;;6.72;;
69981;SDS011;57319;56.274;43.980;2022-11-06T17:07:48;12.52;;;5.90;;
69981;SDS011;57319;56.274;43.980;2022-11-06T17:10:35;11.43;;;5.82;;
69981;SDS011;57319;56.274;43.980;2022-11-06T17:13:13;16.00;;;5.88;;
69981;SDS011;57319;56.274;43.980;2022-11-06T17:15:41;18.23;;;6.30;;
69981;SDS011;57319;56.274;43.980;2022-11-06T17:18:16;13.43;;;5.35;;
69981;SDS011;57319;56.274;43.980;2022-11-06T17:20:45;21.23;;;6.03;;
69981;SDS011;57319;56.274;43.980;2022-11-06T17:23:14;7.10;;;5.38;;
69981;SDS011;57319;56.274;43.980;2022-11-06T17:25:40;9.73;;;6.20;;
69981;SDS011;57319;56.274;43.980;2022-11-06T17:28:07;8.43;;;6.00;;
69981;SDS011;57319;56.274;43.980;2022-11-06T17:30:34;13.02;;;5.53;;
69981;SDS011;57319;56.274;43.980;2022-11-06T17:33:00;10.35;;;5.10;;
69981;SDS011;57319;56.274;43.980;2022-11-06T17:35:26;14.18;;;6.00;;
69981;SDS011;57319;56.274;43.980;2022-11-06T17:37:51;6.32;;;4.57;;
69981;SDS011;57319;56.274;43.980;2022-11-06T17:40:17;14.48;;;4.43;;
69981;SDS011;57319;56.274;43.980;2022-11-06T17:42:43;6.05;;;4.65;;
69981;SDS011;57319;56.274;43.980;2022-11-06T17:45:08;7.07;;;5.28;;
69981;SDS011;57319;56.274;43.980;2022-11-06T17:47:34;6.72;;;5.18;;
69981;SDS011;57319;56.274;43.980;2022-11-06T17:50:00;7.22;;;5.18;;
69981;SDS011;57319;56.274;43.980;2022-11-06T17:52:26;10.52;;;5.07;;
69981;SDS011;57319;56.274;43.980;2022-11-06T17:54:51;12.25;;;5.22;;